createdAt,value
2018-04-22T00:01:55.014Z,15.30
2018-04-22T00:04:22.475Z,15.20
2018-04-22T00:06:49.943Z,15.50
2018-04-22T00:09:18.195Z,14.80
2018-04-22T00:11:46.214Z,14.70
2018-04-22T00:14:13.669Z,15.20
2018-04-22T00:16:41.127Z,15.30
2018-04-22T00:19:08.584Z,15.00
2018-04-22T00:21:36.054Z,15.00
2018-04-22T00:24:03.533Z,15.30
2018-04-22T00:26:30.990Z,15.60
2018-04-22T00:28:58.444Z,15.60
2018-04-22T00:31:25.904Z,15.10
2018-04-22T00:33:53.377Z,14.80
2018-04-22T00:36:20.835Z,14.40
2018-04-22T00:38:48.297Z,14.40
2018-04-22T00:41:15.751Z,14.20
2018-04-22T00:43:43.222Z,14.00
2018-04-22T00:46:10.670Z,14.50
2018-04-22T00:48:38.134Z,14.90
2018-04-22T00:51:05.583Z,14.80
2018-04-22T00:53:44.808Z,14.40
2018-04-22T00:56:12.269Z,14.50
2018-04-22T00:58:39.721Z,13.90
2018-04-22T01:01:07.178Z,14.70
2018-04-22T01:03:34.637Z,14.90
2018-04-22T01:06:02.094Z,15.00
2018-04-22T01:08:29.560Z,15.50
2018-04-22T01:10:57.001Z,15.20
2018-04-22T01:13:24.469Z,14.50
2018-04-22T01:15:51.905Z,14.70
2018-04-22T01:18:19.375Z,14.60
2018-04-22T01:20:46.831Z,14.70
2018-04-22T01:23:14.278Z,15.30
2018-04-22T01:25:41.737Z,15.30
2018-04-22T01:28:09.194Z,14.50
2018-04-22T01:30:36.651Z,14.50
2018-04-22T01:33:04.109Z,14.00
2018-04-22T01:35:31.549Z,14.20
2018-04-22T01:37:59.041Z,13.80
2018-04-22T01:40:26.507Z,14.00
2018-04-22T01:42:53.951Z,14.00
2018-04-22T01:45:21.406Z,14.40
2018-04-22T01:47:48.866Z,14.60
2018-04-22T01:50:16.320Z,14.20
2018-04-22T01:52:43.759Z,14.30
2018-04-22T01:55:11.232Z,14.10
2018-04-22T01:57:38.666Z,14.70
2018-04-22T02:00:06.121Z,14.30
2018-04-22T02:02:33.582Z,14.60
2018-04-22T02:05:01.037Z,14.50
2018-04-22T02:07:28.491Z,13.80
2018-04-22T02:09:55.969Z,13.80
2018-04-22T02:12:23.427Z,13.90
2018-04-22T02:14:50.890Z,14.40
2018-04-22T02:17:18.354Z,14.40
2018-04-22T02:19:45.808Z,14.70
2018-04-22T02:22:13.258Z,14.80
2018-04-22T02:24:40.719Z,14.80
2018-04-22T02:27:08.195Z,14.80
2018-04-22T02:29:35.631Z,14.80
2018-04-22T02:32:03.087Z,14.50
2018-04-22T02:34:31.309Z,14.70
2018-04-22T02:36:59.963Z,14.80
2018-04-22T02:39:27.418Z,14.80
2018-04-22T02:41:54.862Z,14.90
2018-04-22T02:44:22.324Z,14.80
2018-04-22T02:46:49.773Z,14.40
2018-04-22T02:49:17.221Z,14.70
2018-04-22T02:51:44.696Z,15.00
2018-04-22T02:54:12.151Z,13.90
2018-04-22T02:56:39.601Z,13.10
2018-04-22T02:59:07.057Z,12.90
2018-04-22T03:01:34.502Z,12.90
2018-04-22T03:04:01.965Z,13.40
2018-04-22T03:06:29.687Z,14.00
2018-04-22T03:08:57.140Z,13.90
2018-04-22T03:11:24.647Z,14.10
2018-04-22T03:13:52.105Z,14.20
2018-04-22T03:16:19.558Z,14.40
2018-04-22T03:18:47.023Z,14.50
2018-04-22T03:21:14.481Z,14.40
2018-04-22T03:23:41.933Z,14.30
2018-04-22T03:26:09.394Z,14.20
2018-04-22T03:28:36.846Z,13.60
2018-04-22T03:31:04.309Z,13.00
2018-04-22T03:33:31.754Z,12.60
2018-04-22T03:35:59.214Z,12.20
2018-04-22T03:38:26.678Z,12.10
2018-04-22T03:40:54.134Z,12.00
2018-04-22T03:43:21.585Z,12.10
2018-04-22T03:45:49.097Z,11.90
2018-04-22T03:48:17.318Z,11.80
2018-04-22T03:50:44.774Z,11.80
2018-04-22T03:53:12.238Z,11.70
2018-04-22T03:55:39.714Z,11.50
2018-04-22T03:58:07.145Z,11.60
2018-04-22T04:00:34.610Z,12.90
2018-04-22T04:03:02.061Z,13.40
2018-04-22T04:05:29.513Z,13.70
2018-04-22T04:07:57.760Z,13.60
2018-04-22T04:10:25.979Z,13.30
2018-04-22T04:12:53.434Z,13.30
2018-04-22T04:15:20.897Z,12.90
2018-04-22T04:21:18.975Z,13.30
2018-04-22T04:27:25.076Z,13.20
2018-04-22T04:29:52.541Z,12.40
2018-04-22T04:32:19.997Z,12.00
2018-04-22T04:34:47.447Z,12.80
2018-04-22T04:37:14.901Z,13.00
2018-04-22T04:39:42.350Z,13.50
2018-04-22T04:42:09.824Z,13.40
2018-04-22T04:44:37.256Z,12.70
2018-04-22T04:47:04.720Z,11.90
2018-04-22T04:49:32.173Z,12.40
2018-04-22T04:51:59.633Z,12.30
2018-04-22T04:54:27.092Z,12.70
2018-04-22T04:56:54.575Z,12.50
2018-04-22T04:59:22.032Z,12.00
2018-04-22T05:01:49.506Z,12.70
2018-04-22T05:04:16.967Z,13.40
2018-04-22T05:06:44.427Z,13.70
2018-04-22T05:09:11.879Z,13.80
2018-04-22T05:11:39.361Z,13.80
2018-04-22T05:14:07.573Z,13.20
2018-04-22T05:16:35.046Z,13.20
2018-04-22T05:19:02.499Z,12.40
2018-04-22T05:21:29.946Z,12.90
2018-04-22T05:23:57.388Z,13.60
2018-04-22T05:26:24.852Z,13.60
2018-04-22T05:28:52.301Z,12.70
2018-04-22T05:31:19.759Z,12.40
2018-04-22T05:33:47.222Z,12.20
2018-04-22T05:36:14.674Z,12.30
2018-04-22T05:38:42.131Z,12.20
2018-04-22T05:41:09.599Z,12.20
2018-04-22T05:43:37.045Z,12.30
2018-04-22T05:46:04.486Z,12.70
2018-04-22T05:48:31.957Z,13.20
2018-04-22T05:50:59.397Z,14.10
2018-04-22T05:53:26.870Z,13.80
2018-04-22T05:55:54.310Z,14.40
2018-04-22T05:58:21.786Z,13.80
2018-04-22T06:00:49.222Z,13.70
2018-04-22T06:03:16.683Z,14.50
2018-04-22T06:05:44.938Z,16.50
2018-04-22T06:08:12.413Z,16.50
2018-04-22T06:10:39.881Z,16.60
2018-04-22T06:13:08.112Z,18.10
2018-04-22T06:15:35.569Z,18.00
2018-04-22T06:18:03.041Z,16.40
2018-04-22T06:20:30.511Z,16.50
2018-04-22T06:22:58.739Z,18.10
2018-04-22T06:25:26.178Z,18.00
2018-04-22T06:27:53.642Z,19.30
2018-04-22T06:30:21.091Z,20.20
2018-04-22T06:32:48.544Z,20.20
2018-04-22T06:35:16.013Z,20.50
2018-04-22T06:37:43.502Z,20.40
2018-04-22T06:40:10.994Z,20.50
2018-04-22T06:42:38.421Z,21.10
2018-04-22T06:45:05.876Z,20.20
2018-04-22T06:47:33.378Z,21.20
2018-04-22T06:50:00.825Z,21.80
2018-04-22T06:52:29.066Z,22.10
2018-04-22T06:54:56.518Z,22.10
2018-04-22T06:57:23.998Z,22.40
2018-04-22T06:59:51.458Z,22.70
2018-04-22T07:02:18.946Z,21.70
2018-04-22T07:04:47.168Z,20.60
2018-04-22T07:07:14.637Z,20.50
2018-04-22T07:09:42.138Z,21.10
2018-04-22T07:12:09.597Z,22.60
2018-04-22T07:14:37.055Z,23.40
2018-04-22T07:17:04.522Z,23.90
2018-04-22T07:19:31.973Z,24.40
2018-04-22T07:21:59.425Z,24.30
2018-04-22T07:24:26.872Z,24.70
2018-04-22T07:26:54.325Z,24.30
2018-04-22T07:29:22.547Z,23.00
2018-04-22T07:31:49.994Z,23.00
2018-04-22T07:34:17.442Z,24.00
2018-04-22T07:36:44.897Z,24.30
2018-04-22T07:39:12.355Z,24.70
2018-04-22T07:41:39.813Z,24.90
2018-04-22T07:44:07.271Z,22.70
2018-04-22T07:46:34.710Z,22.20
2018-04-22T07:49:02.171Z,22.50
2018-04-22T07:51:29.627Z,22.40
2018-04-22T07:53:57.078Z,23.10
2018-04-22T07:56:24.520Z,24.10
2018-04-22T07:58:52.738Z,25.20
2018-04-22T08:01:20.192Z,25.20
2018-04-22T08:03:47.651Z,25.20
2018-04-22T08:06:15.090Z,24.50
2018-04-22T08:08:42.541Z,25.00
2018-04-22T08:11:09.990Z,25.00
2018-04-22T08:13:38.211Z,23.50
2018-04-22T08:16:05.664Z,23.50
2018-04-22T08:18:33.146Z,23.50
2018-04-22T08:21:00.588Z,24.80
2018-04-22T08:23:28.036Z,25.00
2018-04-22T08:25:55.476Z,26.20
2018-04-22T08:28:22.971Z,26.70
2018-04-22T08:30:50.380Z,26.80
2018-04-22T08:33:17.887Z,26.00
2018-04-22T08:35:46.077Z,26.60
2018-04-22T08:38:13.542Z,26.60
2018-04-22T08:40:41.746Z,26.80
2018-04-22T08:43:09.210Z,26.80
2018-04-22T08:45:36.653Z,27.40
2018-04-22T08:48:04.119Z,26.80
2018-04-22T08:50:31.554Z,26.40
2018-04-22T08:52:59.782Z,27.50
2018-04-22T08:55:27.238Z,27.40
2018-04-22T08:57:54.699Z,27.60
2018-04-22T09:00:22.146Z,27.60
2018-04-22T09:02:49.605Z,28.00
2018-04-22T09:05:17.062Z,28.20
2018-04-22T09:07:44.550Z,28.20
2018-04-22T09:10:11.990Z,28.30
2018-04-22T09:12:39.441Z,27.30
2018-04-22T09:15:06.904Z,28.10
2018-04-22T09:17:34.350Z,28.20
2018-04-22T09:20:01.804Z,28.50
2018-04-22T09:22:29.263Z,28.20
2018-04-22T09:24:56.695Z,27.40
2018-04-22T09:27:24.206Z,27.30
2018-04-22T09:29:51.661Z,28.40
2018-04-22T09:32:19.110Z,28.00
2018-04-22T09:34:46.562Z,27.80
2018-04-22T09:37:14.018Z,27.30
2018-04-22T09:39:41.472Z,28.00
2018-04-22T09:42:08.918Z,28.30
2018-04-22T09:44:36.364Z,28.20
2018-04-22T09:47:03.813Z,28.50
2018-04-22T09:49:31.254Z,28.60
2018-04-22T09:51:58.701Z,28.70
2018-04-22T09:54:26.912Z,28.70
2018-04-22T09:56:54.372Z,28.70
2018-04-22T09:59:21.829Z,28.70
2018-04-22T10:01:49.322Z,29.20
2018-04-22T10:04:16.780Z,29.80
2018-04-22T10:06:44.229Z,29.90
2018-04-22T10:09:11.710Z,29.50
2018-04-22T10:11:39.931Z,29.20
2018-04-22T10:14:07.390Z,29.20
2018-04-22T10:16:34.910Z,29.10
2018-04-22T10:19:02.309Z,29.80
2018-04-22T10:21:29.759Z,30.60
2018-04-22T10:23:57.219Z,29.60
2018-04-22T10:26:25.442Z,33.00
2018-04-22T10:28:52.902Z,32.80
2018-04-22T10:31:21.124Z,32.60
2018-04-22T10:33:48.580Z,32.60
2018-04-22T10:36:16.021Z,32.00
2018-04-22T10:38:43.478Z,31.80
2018-04-22T10:41:10.902Z,32.90
2018-04-22T10:43:38.358Z,33.20
2018-04-22T10:46:06.561Z,31.80
2018-04-22T10:48:34.016Z,31.80
2018-04-22T10:51:01.467Z,32.90
2018-04-22T10:53:28.924Z,32.70
2018-04-22T10:55:56.365Z,32.70
2018-04-22T10:58:24.595Z,32.10
2018-04-22T11:00:52.032Z,32.10
2018-04-22T11:03:19.469Z,32.50
2018-04-22T11:05:46.935Z,32.70
2018-04-22T11:08:14.373Z,33.80
2018-04-22T11:10:42.616Z,34.20
2018-04-22T11:13:10.057Z,34.20
2018-04-22T11:15:37.508Z,33.90
2018-04-22T11:18:04.963Z,34.50
2018-04-22T11:20:32.421Z,35.00
2018-04-22T11:22:59.876Z,35.10
2018-04-22T11:25:27.354Z,35.70
2018-04-22T11:27:54.797Z,35.70
2018-04-22T11:30:22.273Z,35.50
2018-04-22T11:32:49.726Z,35.20
2018-04-22T11:35:17.193Z,35.20
2018-04-22T11:37:44.638Z,35.10
2018-04-22T11:40:12.090Z,34.60
2018-04-22T11:42:39.537Z,34.80
2018-04-22T11:45:06.997Z,33.80
2018-04-22T11:47:34.446Z,34.00
2018-04-22T11:50:01.910Z,33.60
2018-04-22T11:52:29.361Z,33.30
2018-04-22T11:54:56.848Z,32.90
2018-04-22T11:57:24.297Z,32.10
2018-04-22T11:59:51.751Z,31.30
2018-04-22T12:02:19.185Z,31.20
2018-04-22T12:04:46.643Z,31.60
2018-04-22T12:07:14.246Z,31.90
2018-04-22T12:09:41.686Z,32.10
2018-04-22T12:12:09.178Z,31.90
2018-04-22T12:14:36.725Z,33.20
2018-04-22T12:17:04.137Z,32.90
2018-04-22T12:19:31.596Z,33.00
2018-04-22T12:21:59.155Z,32.70
2018-04-22T12:24:26.615Z,32.90
2018-04-22T12:26:54.066Z,33.30
2018-04-22T12:29:21.569Z,33.30
2018-04-22T12:31:49.209Z,33.70
2018-04-22T12:34:16.843Z,33.40
2018-04-22T12:36:44.493Z,32.70
2018-04-22T12:39:12.798Z,32.50
2018-04-22T12:41:40.265Z,32.40
2018-04-22T12:44:07.715Z,31.80
2018-04-22T12:46:35.251Z,32.40
2018-04-22T12:49:02.715Z,32.20
2018-04-22T12:51:30.251Z,32.30
2018-04-22T12:53:57.751Z,32.20
2018-04-22T12:56:25.926Z,31.40
2018-04-22T12:58:53.377Z,31.40
2018-04-22T13:01:20.835Z,30.60
2018-04-22T13:03:48.293Z,30.40
2018-04-22T13:06:15.774Z,30.00
2018-04-22T13:08:43.238Z,29.80
2018-04-22T13:11:10.695Z,29.70
2018-04-22T13:13:38.160Z,29.50
2018-04-22T13:16:05.610Z,29.00
2018-04-22T13:18:33.100Z,29.10
2018-04-22T13:21:00.575Z,29.20
2018-04-22T13:23:28.033Z,28.90
2018-04-22T13:25:55.518Z,28.90
2018-04-22T13:28:22.972Z,29.10
2018-04-22T13:30:50.435Z,29.00
2018-04-22T13:33:17.893Z,28.90
2018-04-22T13:35:45.347Z,28.80
2018-04-22T13:38:12.794Z,28.70
2018-04-22T13:40:40.246Z,28.70
2018-04-22T13:43:07.731Z,28.80
2018-04-22T13:45:35.186Z,28.70
2018-04-22T13:48:02.650Z,28.50
2018-04-22T13:50:30.099Z,28.40
2018-04-22T13:52:57.573Z,28.50
2018-04-22T13:55:25.033Z,28.30
2018-04-22T13:57:52.541Z,28.30
2018-04-22T14:00:20.751Z,28.50
2018-04-22T14:02:48.212Z,28.50
2018-04-22T14:05:15.694Z,28.80
2018-04-22T14:07:43.910Z,28.90
2018-04-22T14:10:11.369Z,28.90
2018-04-22T14:12:38.839Z,28.70
2018-04-22T14:15:06.871Z,28.30
2018-04-22T14:17:34.338Z,28.30
2018-04-22T14:20:01.820Z,28.40
2018-04-22T14:22:29.263Z,28.40
2018-04-22T14:24:56.737Z,28.40
2018-04-22T14:27:24.298Z,28.30
2018-04-22T14:29:51.741Z,28.30
2018-04-22T14:32:19.275Z,28.10
2018-04-22T14:34:46.740Z,27.80
2018-04-22T14:37:14.231Z,27.80
2018-04-22T14:39:41.683Z,27.80
2018-04-22T14:42:09.137Z,27.70
2018-04-22T14:44:48.532Z,27.60
2018-04-22T14:47:16.007Z,27.50
2018-04-22T14:49:43.459Z,27.50
2018-04-22T14:52:10.957Z,27.50
2018-04-22T14:54:38.472Z,27.60
2018-04-22T14:57:05.950Z,27.70
2018-04-22T14:59:33.412Z,27.90
2018-04-22T15:02:00.879Z,28.00
2018-04-22T15:04:28.374Z,27.90
2018-04-22T15:06:55.848Z,27.70
2018-04-22T15:09:23.298Z,27.60
2018-04-22T15:11:51.558Z,27.40
2018-04-22T15:14:19.034Z,27.40
2018-04-22T15:16:47.292Z,27.30
2018-04-22T15:19:14.753Z,27.30
2018-04-22T15:21:42.227Z,27.30
2018-04-22T15:24:09.681Z,27.30
2018-04-22T15:26:37.159Z,27.00
2018-04-22T15:29:04.624Z,27.00
2018-04-22T15:31:32.099Z,27.00
2018-04-22T15:33:59.578Z,27.10
2018-04-22T15:36:27.026Z,27.00
2018-04-22T15:38:54.503Z,26.90
2018-04-22T15:41:21.961Z,26.80
2018-04-22T15:43:49.500Z,26.90
2018-04-22T15:46:16.941Z,26.80
2018-04-22T15:48:44.439Z,26.80
2018-04-22T15:51:11.980Z,26.70
2018-04-22T15:53:39.443Z,26.50
2018-04-22T15:56:06.961Z,26.50
2018-04-22T15:58:34.448Z,26.40
2018-04-22T16:01:01.944Z,26.40
2018-04-22T16:03:29.447Z,26.50
2018-04-22T16:05:56.946Z,26.70
2018-04-22T16:08:24.432Z,26.50
2018-04-22T16:10:51.912Z,26.40
2018-04-22T16:13:19.386Z,26.40
2018-04-22T16:15:46.860Z,26.40
2018-04-22T16:18:14.330Z,26.20
2018-04-22T16:20:41.798Z,26.10
2018-04-22T16:23:09.273Z,26.10
2018-04-22T16:25:37.499Z,26.20
2018-04-22T16:28:04.953Z,26.10
2018-04-22T16:30:32.411Z,26.20
2018-04-22T16:32:59.886Z,26.20
2018-04-22T16:35:27.368Z,26.20
2018-04-22T16:37:54.886Z,26.20
2018-04-22T16:40:22.378Z,26.20
2018-04-22T16:42:49.830Z,26.20
2018-04-22T16:45:17.286Z,26.10
2018-04-22T16:47:44.785Z,26.10
2018-04-22T16:50:12.291Z,26.00
2018-04-22T16:52:39.755Z,25.80
2018-04-22T16:55:07.231Z,25.70
2018-04-22T16:57:34.691Z,25.80
2018-04-22T17:00:02.940Z,25.60
2018-04-22T17:02:30.423Z,25.60
2018-04-22T17:04:58.671Z,25.40
2018-04-22T17:07:26.146Z,25.40
2018-04-22T17:09:53.627Z,25.40
2018-04-22T17:12:21.138Z,25.30
2018-04-22T17:14:48.601Z,25.20
2018-04-22T17:17:16.069Z,25.10
2018-04-22T17:19:43.575Z,25.10
2018-04-22T17:22:11.043Z,25.00
2018-04-22T17:24:38.515Z,25.00
2018-04-22T17:27:06.015Z,25.00
2018-04-22T17:29:33.493Z,24.90
2018-04-22T17:32:01.746Z,24.80
2018-04-22T17:34:29.236Z,24.80
2018-04-22T17:36:56.726Z,24.80
2018-04-22T17:39:24.213Z,24.80
2018-04-22T17:41:51.685Z,24.80
2018-04-22T17:44:19.225Z,24.60
2018-04-22T17:46:46.739Z,24.60
2018-04-22T17:49:14.287Z,24.60
2018-04-22T17:51:41.767Z,24.50
2018-04-22T17:54:09.268Z,24.50
2018-04-22T17:56:36.743Z,24.50
2018-04-22T17:59:04.246Z,24.40
2018-04-22T18:01:31.750Z,24.40
2018-04-22T18:03:59.298Z,24.30
2018-04-22T18:06:26.902Z,24.30
2018-04-22T18:08:54.383Z,24.20
2018-04-22T18:11:21.851Z,24.10
2018-04-22T18:13:49.355Z,24.10
2018-04-22T18:16:17.603Z,24.00
2018-04-22T18:18:45.123Z,24.00
2018-04-22T18:21:13.460Z,23.90
2018-04-22T18:23:41.747Z,23.80
2018-04-22T18:26:10.159Z,23.70
2018-04-22T18:28:38.888Z,23.70
2018-04-22T18:31:06.506Z,23.70
2018-04-22T18:33:35.248Z,23.60
2018-04-22T18:36:03.950Z,23.50
2018-04-22T18:38:32.255Z,23.50
2018-04-22T18:40:59.782Z,23.40
2018-04-22T18:43:28.252Z,23.30
2018-04-22T18:45:56.694Z,23.20
2018-04-22T18:48:30.903Z,23.20
2018-04-22T18:50:59.545Z,23.20
2018-04-22T18:53:27.264Z,23.10
2018-04-22T18:55:56.247Z,23.00
2018-04-22T18:58:26.506Z,23.00
2018-04-22T19:00:54.354Z,22.90
2018-04-22T19:03:22.689Z,22.90
2018-04-22T19:05:50.189Z,22.80
2018-04-22T19:08:17.654Z,22.70
2018-04-22T19:10:45.143Z,22.70
2018-04-22T19:13:13.375Z,22.60
2018-04-22T19:15:40.935Z,22.60
2018-04-22T19:18:08.398Z,22.50
2018-04-22T19:20:35.873Z,22.50
2018-04-22T19:23:03.371Z,22.40
2018-04-22T19:25:31.642Z,22.30
2018-04-22T19:27:59.112Z,22.20
2018-04-22T19:30:26.590Z,22.00
2018-04-22T19:32:54.050Z,22.00
2018-04-22T19:35:21.535Z,22.00
2018-04-22T19:37:49.005Z,22.00
2018-04-22T19:40:17.293Z,21.90
2018-04-22T19:42:44.694Z,21.90
2018-04-22T19:45:12.154Z,22.00
2018-04-22T19:47:39.589Z,21.90
2018-04-22T19:50:07.055Z,21.90
2018-04-22T19:52:34.551Z,21.80
2018-04-22T19:55:02.026Z,21.90
2018-04-22T19:57:30.232Z,21.80
2018-04-22T19:59:57.693Z,21.70
2018-04-22T20:02:25.125Z,21.70
2018-04-22T20:04:53.597Z,21.70
2018-04-22T20:07:21.050Z,21.60
2018-04-22T20:09:49.276Z,21.50
2018-04-22T20:12:16.768Z,21.50
2018-04-22T20:14:44.251Z,21.50
2018-04-22T20:17:12.458Z,21.40
2018-04-22T20:19:39.926Z,21.40
2018-04-22T20:22:07.352Z,21.30
2018-04-22T20:24:34.822Z,21.30
2018-04-22T20:27:02.257Z,21.20
2018-04-22T20:29:30.470Z,21.10
2018-04-22T20:31:57.939Z,21.20
2018-04-22T20:34:25.397Z,21.10
2018-04-22T20:36:52.870Z,21.00
2018-04-22T20:39:20.332Z,20.90
2018-04-22T20:41:47.806Z,20.90
2018-04-22T20:44:16.019Z,20.50
2018-04-22T20:46:43.469Z,20.50
2018-04-22T20:49:10.921Z,20.40
2018-04-22T20:51:38.374Z,20.20
2018-04-22T20:54:05.826Z,20.20
2018-04-22T20:56:33.273Z,20.40
2018-04-22T20:59:01.497Z,20.50
2018-04-22T21:01:28.966Z,20.60
2018-04-22T21:03:56.453Z,20.60
2018-04-22T21:06:24.680Z,20.40
2018-04-22T21:08:52.121Z,20.40
2018-04-22T21:11:19.581Z,20.40
2018-04-22T21:13:47.039Z,20.40
2018-04-22T21:16:14.495Z,20.50
2018-04-22T21:18:41.954Z,20.40
2018-04-22T21:21:09.477Z,20.30
2018-04-22T21:23:36.953Z,19.80
2018-04-22T21:26:04.419Z,19.80
2018-04-22T21:28:31.902Z,20.00
2018-04-22T21:30:59.305Z,19.90
2018-04-22T21:33:26.753Z,20.10
2018-04-22T21:35:54.207Z,20.20
2018-04-22T21:38:21.649Z,20.30
2018-04-22T21:40:49.122Z,20.30
2018-04-22T21:43:16.567Z,20.30
2018-04-22T21:45:44.046Z,20.30
2018-04-22T21:48:11.493Z,20.00
2018-04-22T21:50:38.946Z,19.50
2018-04-22T21:53:06.405Z,19.00
2018-04-22T21:55:33.872Z,18.80
2018-04-22T21:58:02.109Z,18.60
2018-04-22T22:00:29.549Z,18.60
2018-04-22T22:02:57.083Z,18.40
2018-04-22T22:05:24.540Z,18.30
2018-04-22T22:07:52.046Z,18.30
2018-04-22T22:10:19.493Z,18.30
2018-04-22T22:12:46.963Z,18.20
2018-04-22T22:15:14.403Z,18.00
2018-04-22T22:17:41.904Z,18.00
2018-04-22T22:20:10.035Z,18.30
2018-04-22T22:22:37.788Z,18.50
2018-04-22T22:25:05.225Z,18.80
2018-04-22T22:27:32.804Z,18.20
2018-04-22T22:30:00.328Z,18.10
2018-04-22T22:32:28.605Z,18.20
2018-04-22T22:34:57.334Z,17.90
2018-04-22T22:37:25.566Z,17.60
2018-04-22T22:39:53.002Z,17.60
2018-04-22T22:42:20.845Z,17.70
2018-04-22T22:44:48.326Z,17.80
2018-04-22T22:47:15.803Z,18.00
2018-04-22T22:49:43.388Z,17.60
2018-04-22T22:52:10.967Z,17.60
2018-04-22T22:54:39.159Z,17.40
2018-04-22T22:57:06.666Z,17.20
2018-04-22T22:59:34.381Z,17.40
2018-04-22T23:02:02.145Z,17.40
2018-04-22T23:04:29.627Z,17.20
2018-04-22T23:06:58.112Z,17.20
2018-04-22T23:09:26.351Z,17.00
2018-04-22T23:11:53.813Z,17.00
2018-04-22T23:14:21.322Z,17.30
2018-04-22T23:16:49.551Z,17.20
2018-04-22T23:19:16.999Z,17.30
2018-04-22T23:21:44.501Z,17.40
2018-04-22T23:24:12.000Z,17.50
2018-04-22T23:26:39.482Z,17.60
2018-04-22T23:29:06.948Z,17.40
2018-04-22T23:31:34.435Z,17.20
2018-04-22T23:34:01.934Z,17.30
2018-04-22T23:36:29.408Z,17.60
2018-04-22T23:38:56.920Z,17.60
2018-04-22T23:41:24.404Z,17.40
2018-04-22T23:43:51.889Z,17.30
2018-04-22T23:46:19.363Z,17.40
2018-04-22T23:48:46.851Z,17.50
2018-04-22T23:51:15.102Z,17.40
2018-04-22T23:53:42.606Z,17.40
2018-04-22T23:56:10.073Z,17.40
2018-04-22T23:58:37.583Z,17.10
